createdAt,value
2022-10-11T00:00:24.761Z,12.85
2022-10-11T00:03:07.041Z,11.30
2022-10-11T00:05:49.092Z,12.13
2022-10-11T00:08:30.340Z,13.20
2022-10-11T00:11:11.944Z,12.35
2022-10-11T00:13:53.785Z,12.45
2022-10-11T00:16:38.824Z,12.23
2022-10-11T00:19:20.958Z,10.88
2022-10-11T00:22:01.954Z,11.23
2022-10-11T00:24:44.088Z,11.75
2022-10-11T00:27:24.588Z,11.27
2022-10-11T00:30:07.672Z,10.32
2022-10-11T00:32:50.553Z,10.85
2022-10-11T00:35:32.333Z,10.45
2022-10-11T00:38:13.544Z,10.98
2022-10-11T00:40:55.966Z,9.73
2022-10-11T00:43:38.556Z,9.85
2022-10-11T00:46:34.129Z,10.07
2022-10-11T00:49:26.871Z,9.60
2022-10-11T00:52:15.994Z,9.10
2022-10-11T00:54:59.560Z,10.80
2022-10-11T00:57:46.391Z,9.82
2022-10-11T01:00:29.301Z,10.43
2022-10-11T01:03:12.149Z,12.38
2022-10-11T01:05:54.602Z,11.60
2022-10-11T01:08:35.899Z,10.90
2022-10-11T01:11:20.842Z,10.30
2022-10-11T01:14:16.755Z,10.10
2022-10-11T01:17:05.016Z,9.95
2022-10-11T01:20:02.071Z,11.80
2022-10-11T01:23:17.052Z,11.85
2022-10-11T01:26:20.794Z,9.65
2022-10-11T01:29:15.079Z,9.45
2022-10-11T01:32:02.606Z,8.70
2022-10-11T01:34:56.114Z,7.47
2022-10-11T01:37:41.587Z,8.80
2022-10-11T01:40:29.481Z,10.20
2022-10-11T01:43:13.164Z,8.55
2022-10-11T01:45:57.615Z,9.68
2022-10-11T01:48:51.241Z,9.35
2022-10-11T01:51:37.864Z,8.90
2022-10-11T01:55:08.678Z,9.85
2022-10-11T01:58:09.222Z,9.63
2022-10-11T02:00:58.158Z,10.15
2022-10-11T02:03:48.291Z,8.88
2022-10-11T02:06:37.901Z,9.35
2022-10-11T02:09:27.133Z,10.88
2022-10-11T02:12:13.683Z,10.95
2022-10-11T02:14:57.587Z,9.57
2022-10-11T02:17:45.960Z,9.95
2022-10-11T02:20:33.176Z,9.35
2022-10-11T02:23:21.774Z,10.48
2022-10-11T02:26:06.878Z,10.10
2022-10-11T02:28:52.609Z,10.48
2022-10-11T02:31:36.739Z,9.65
2022-10-11T02:34:29.141Z,10.10
2022-10-11T02:37:17.998Z,9.80
2022-10-11T02:40:05.404Z,9.60
2022-10-11T02:42:52.386Z,9.73
2022-10-11T02:45:39.133Z,10.10
2022-10-11T02:48:21.321Z,9.50
2022-10-11T02:51:04.918Z,9.68
2022-10-11T02:53:47.106Z,9.85
2022-10-11T02:56:30.155Z,10.13
2022-10-11T02:59:10.921Z,9.95
2022-10-11T03:01:52.367Z,10.38
2022-10-11T03:04:34.130Z,10.20
2022-10-11T03:07:15.790Z,10.90
2022-10-11T03:09:58.168Z,10.70
2022-10-11T03:12:40.072Z,12.00
2022-10-11T03:15:22.554Z,10.73
2022-10-11T03:18:04.622Z,11.77
2022-10-11T03:20:48.123Z,9.45
2022-10-11T03:23:30.346Z,10.80
2022-10-11T03:26:12.512Z,9.93
2022-10-11T03:28:53.076Z,9.65
2022-10-11T03:31:34.134Z,9.30
2022-10-11T03:34:15.521Z,9.32
2022-10-11T03:36:56.711Z,9.38
2022-10-11T03:39:38.998Z,9.70
2022-10-11T03:42:20.058Z,9.70
2022-10-11T03:45:04.918Z,10.40
2022-10-11T03:47:45.741Z,11.80
2022-10-11T03:50:27.118Z,10.50
2022-10-11T03:53:08.841Z,9.18
2022-10-11T03:55:53.886Z,11.38
2022-10-11T03:58:35.054Z,8.55
2022-10-11T04:01:16.052Z,10.82
2022-10-11T04:03:58.497Z,9.25
2022-10-11T04:06:38.581Z,9.15
2022-10-11T04:09:20.231Z,11.13
2022-10-11T04:12:01.905Z,8.18
2022-10-11T04:14:42.998Z,7.35
2022-10-11T04:17:24.516Z,7.35
2022-10-11T04:20:07.969Z,8.13
2022-10-11T04:22:49.329Z,7.65
2022-10-11T04:25:30.511Z,6.80
2022-10-11T04:28:11.764Z,7.30
2022-10-11T04:30:53.839Z,8.15
2022-10-11T04:33:33.554Z,6.50
2022-10-11T04:36:14.195Z,7.32
2022-10-11T04:38:56.282Z,7.60
2022-10-11T04:41:37.243Z,6.70
2022-10-11T04:44:18.768Z,6.43
2022-10-11T04:46:59.895Z,6.05
2022-10-11T04:49:41.187Z,5.95
2022-10-11T04:52:25.934Z,6.00
2022-10-11T04:55:08.341Z,5.25
2022-10-11T04:57:49.074Z,4.40
2022-10-11T05:00:30.292Z,4.75
2022-10-11T05:03:12.227Z,3.95
2022-10-11T05:05:56.517Z,5.30
2022-10-11T05:08:37.537Z,4.15
2022-10-11T05:11:19.805Z,3.20
2022-10-11T05:14:00.368Z,5.70
2022-10-11T05:16:41.698Z,3.38
2022-10-11T05:19:23.461Z,3.40
2022-10-11T05:22:07.332Z,3.47
2022-10-11T05:24:47.808Z,3.20
2022-10-11T05:27:29.328Z,2.95
2022-10-11T05:30:11.928Z,4.20
2022-10-11T05:33:08.224Z,3.33
2022-10-11T05:35:49.613Z,3.38
2022-10-11T05:38:30.826Z,2.90
2022-10-11T05:41:14.944Z,3.00
2022-10-11T05:43:56.492Z,2.85
2022-10-11T05:46:38.040Z,4.72
2022-10-11T05:49:19.648Z,3.67
2022-10-11T05:52:00.860Z,2.97
2022-10-11T05:54:42.512Z,2.95
2022-10-11T05:57:24.106Z,3.05
2022-10-11T06:00:05.614Z,2.42
2022-10-11T06:02:53.568Z,2.63
2022-10-11T06:05:35.660Z,3.65
2022-10-11T06:08:17.598Z,2.95
2022-10-11T06:10:58.590Z,3.30
2022-10-11T06:13:46.876Z,3.10
2022-10-11T06:16:50.858Z,3.55
2022-10-11T06:19:45.326Z,4.40
2022-10-11T06:22:45.124Z,3.40
2022-10-11T06:25:40.055Z,3.33
2022-10-11T06:28:46.724Z,3.38
2022-10-11T06:31:56.764Z,2.90
2022-10-11T06:34:52.067Z,2.50
2022-10-11T06:37:51.465Z,2.50
2022-10-11T06:40:56.007Z,2.95
2022-10-11T06:43:50.650Z,2.75
2022-10-11T06:46:46.989Z,2.92
2022-10-11T06:49:41.908Z,3.67
2022-10-11T06:52:40.251Z,3.83
2022-10-11T06:55:38.284Z,2.88
2022-10-11T06:58:39.139Z,3.15
2022-10-11T07:01:36.014Z,3.15
2022-10-11T07:04:35.115Z,3.28
2022-10-11T07:07:38.452Z,3.13
2022-10-11T07:10:39.044Z,2.50
2022-10-11T07:13:33.988Z,2.53
2022-10-11T07:16:31.725Z,2.53
2022-10-11T07:19:36.023Z,2.45
2022-10-11T07:22:37.085Z,2.45
2022-10-11T07:25:34.386Z,2.35
2022-10-11T07:28:32.673Z,2.20
2022-10-11T07:32:11.363Z,2.40
2022-10-11T07:35:11.743Z,2.45
2022-10-11T07:38:11.432Z,2.45
2022-10-11T07:41:07.385Z,2.63
2022-10-11T07:44:07.008Z,2.80
2022-10-11T07:47:08.964Z,3.05
2022-10-11T07:50:11.429Z,2.70
2022-10-11T07:53:10.013Z,2.03
2022-10-11T07:56:09.457Z,1.58
2022-10-11T07:59:12.193Z,2.40
2022-10-11T08:01:51.650Z,1.87
2022-10-11T08:04:58.522Z,2.20
2022-10-11T08:08:06.288Z,1.85
2022-10-11T08:11:06.620Z,2.30
2022-10-11T08:14:08.871Z,2.08
2022-10-11T08:17:05.997Z,1.60
2022-10-11T08:20:15.722Z,1.73
2022-10-11T08:23:23.037Z,3.45
2022-10-11T08:26:17.936Z,2.40
2022-10-11T08:29:22.098Z,2.80
2022-10-11T08:32:16.415Z,2.45
2022-10-11T08:35:30.094Z,2.38
2022-10-11T08:38:31.083Z,2.20
2022-10-11T08:41:49.806Z,1.75
2022-10-11T08:45:10.012Z,2.10
2022-10-11T08:48:15.765Z,1.70
2022-10-11T08:51:29.361Z,1.80
2022-10-11T08:54:33.328Z,3.28
2022-10-11T08:57:41.041Z,2.08
2022-10-11T09:00:38.253Z,2.55
2022-10-11T09:03:40.490Z,1.70
2022-10-11T09:06:35.108Z,2.45
2022-10-11T09:09:37.953Z,1.38
2022-10-11T09:12:32.385Z,1.95
2022-10-11T09:15:21.766Z,1.45
2022-10-11T09:18:39.333Z,1.50
2022-10-11T09:21:31.808Z,1.45
2022-10-11T09:24:29.500Z,1.90
2022-10-11T09:27:14.005Z,2.27
2022-10-11T09:30:04.329Z,1.20
2022-10-11T09:32:49.158Z,2.10
2022-10-11T09:35:20.259Z,1.90
2022-10-11T09:37:57.088Z,1.50
2022-10-11T09:40:44.476Z,1.50
2022-10-11T09:43:13.454Z,1.75
2022-10-11T09:45:49.155Z,2.30
2022-10-11T09:48:24.316Z,1.63
2022-10-11T09:51:04.174Z,1.35
2022-10-11T09:53:53.941Z,1.42
2022-10-11T09:56:22.756Z,1.65
2022-10-11T09:58:51.317Z,1.88
2022-10-11T10:01:30.036Z,1.80
2022-10-11T10:04:09.398Z,1.45
2022-10-11T10:06:38.080Z,2.25
2022-10-11T10:09:25.621Z,1.75
2022-10-11T10:11:55.144Z,1.42
2022-10-11T10:14:26.459Z,1.70
2022-10-11T10:17:02.251Z,1.55
2022-10-11T10:19:44.663Z,1.80
2022-10-11T10:22:19.747Z,1.95
2022-10-11T10:24:50.113Z,2.15
2022-10-11T10:27:22.318Z,1.30
2022-10-11T10:30:04.598Z,1.98
2022-10-11T10:32:43.789Z,1.40
2022-10-11T10:35:27.721Z,1.40
2022-10-11T10:38:05.179Z,1.60
2022-10-11T10:40:40.273Z,1.15
2022-10-11T10:43:15.686Z,1.70
2022-10-11T10:45:58.384Z,1.33
2022-10-11T10:49:11.737Z,1.48
2022-10-11T10:51:40.849Z,1.55
2022-10-11T10:54:20.569Z,1.48
2022-10-11T10:56:54.057Z,2.42
2022-10-11T10:59:40.575Z,1.15
2022-10-11T11:02:38.883Z,1.88
2022-10-11T11:05:16.389Z,1.65
2022-10-11T11:07:51.434Z,2.15
2022-10-11T11:10:22.839Z,1.10
2022-10-11T11:12:57.334Z,1.42
2022-10-11T11:15:37.624Z,1.95
2022-10-11T11:18:22.202Z,1.40
2022-10-11T11:21:03.929Z,2.03
2022-10-11T11:23:41.824Z,2.10
2022-10-11T11:26:17.027Z,2.20
2022-10-11T11:30:57.563Z,1.30
2022-10-11T11:33:36.398Z,1.45
2022-10-11T11:36:11.053Z,1.42
2022-10-11T11:38:47.072Z,1.55
2022-10-11T11:41:20.715Z,1.92
2022-10-11T11:44:03.675Z,1.60
2022-10-11T11:46:39.726Z,2.13
2022-10-11T11:49:14.856Z,1.63
2022-10-11T11:51:45.514Z,1.70
2022-10-11T11:54:28.743Z,1.50
2022-10-11T11:57:04.351Z,1.48
2022-10-11T11:59:38.701Z,1.73
2022-10-11T12:02:35.128Z,1.58
2022-10-11T12:05:03.465Z,1.70
2022-10-11T12:07:32.177Z,1.20
2022-10-11T12:10:16.643Z,1.25
2022-10-11T12:12:45.127Z,1.48
2022-10-11T12:15:26.144Z,1.40
2022-10-11T12:18:17.500Z,1.70
2022-10-11T12:20:46.271Z,1.70
2022-10-11T12:23:43.937Z,1.35
2022-10-11T12:26:35.501Z,1.60
2022-10-11T12:29:25.858Z,1.70
2022-10-11T12:32:13.621Z,1.33
2022-10-11T12:34:44.422Z,1.60
2022-10-11T12:37:51.610Z,1.00
2022-10-11T12:40:41.745Z,1.25
2022-10-11T12:43:12.427Z,0.98
2022-10-11T12:45:41.597Z,1.27
2022-10-11T12:48:34.972Z,2.10
2022-10-11T12:51:27.028Z,1.05
2022-10-11T12:54:26.021Z,1.23
2022-10-11T12:57:17.284Z,1.50
2022-10-11T12:59:46.938Z,1.73
2022-10-11T13:02:28.967Z,2.13
2022-10-11T13:05:09.539Z,1.40
2022-10-11T13:07:43.315Z,1.10
2022-10-11T13:10:15.913Z,1.38
2022-10-11T13:12:48.123Z,1.95
2022-10-11T13:15:20.241Z,1.58
2022-10-11T13:17:51.781Z,1.65
2022-10-11T13:20:22.560Z,1.40
2022-10-11T13:22:54.156Z,1.60
2022-10-11T13:25:24.869Z,1.05
2022-10-11T13:27:55.412Z,1.20
2022-10-11T13:33:23.897Z,1.25
2022-10-11T13:35:54.021Z,1.42
2022-10-11T13:38:29.751Z,1.55
2022-10-11T13:40:59.716Z,1.55
2022-10-11T13:43:30.095Z,1.85
2022-10-11T13:46:00.435Z,1.83
2022-10-11T13:48:31.973Z,1.35
2022-10-11T13:51:08.028Z,1.40
2022-10-11T13:53:37.599Z,1.67
2022-10-11T13:56:09.561Z,2.65
2022-10-11T13:58:40.560Z,2.05
2022-10-11T14:01:19.327Z,1.67
2022-10-11T14:03:50.261Z,2.10
2022-10-11T14:06:18.496Z,2.15
2022-10-11T14:08:51.018Z,1.80
2022-10-11T14:11:34.671Z,1.63
2022-10-11T14:14:30.117Z,1.23
2022-10-11T14:17:05.005Z,1.90
2022-10-11T14:19:33.516Z,2.38
2022-10-11T14:22:01.803Z,3.05
2022-10-11T14:24:31.287Z,1.73
2022-10-11T14:27:00.023Z,1.70
2022-10-11T14:29:30.097Z,2.65
2022-10-11T14:32:03.566Z,1.70
2022-10-11T14:34:33.183Z,1.35
2022-10-11T14:37:01.467Z,1.30
2022-10-11T14:39:33.322Z,1.67
2022-10-11T14:42:01.819Z,1.45
2022-10-11T14:48:50.192Z,2.25
2022-10-11T14:51:15.669Z,2.00
2022-10-11T14:53:46.433Z,2.00
2022-10-11T14:56:21.076Z,2.53
2022-10-11T14:58:49.920Z,2.75
2022-10-11T15:01:18.970Z,2.88
2022-10-11T15:03:47.149Z,2.08
2022-10-11T15:06:19.942Z,2.45
2022-10-11T15:08:48.555Z,2.47
2022-10-11T15:11:20.712Z,2.10
2022-10-11T15:13:48.856Z,2.00
2022-10-11T15:16:20.236Z,2.42
2022-10-11T15:18:51.059Z,3.90
2022-10-11T15:21:21.351Z,3.47
2022-10-11T15:23:50.891Z,8.77
2022-10-11T15:26:22.122Z,12.95
2022-10-11T15:28:51.357Z,10.55
2022-10-11T15:31:19.972Z,9.35
2022-10-11T15:33:48.568Z,3.78
2022-10-11T15:36:19.459Z,2.20
2022-10-11T15:38:48.774Z,2.58
2022-10-11T15:41:20.330Z,3.70
2022-10-11T15:43:50.200Z,1.70
2022-10-11T15:46:20.828Z,2.42
2022-10-11T15:48:51.243Z,3.10
2022-10-11T15:51:19.991Z,1.67
2022-10-11T15:53:48.279Z,1.55
2022-10-11T15:56:19.002Z,1.70
2022-10-11T15:58:48.694Z,1.58
2022-10-11T16:01:18.846Z,2.22
2022-10-11T16:03:48.175Z,1.48
2022-10-11T16:06:16.682Z,2.92
2022-10-11T16:08:45.149Z,2.97
2022-10-11T16:11:13.873Z,3.47
2022-10-11T16:13:42.353Z,11.23
2022-10-11T16:16:12.720Z,10.35
2022-10-11T16:18:41.149Z,7.03
2022-10-11T16:21:11.795Z,3.72
2022-10-11T16:23:40.099Z,3.10
2022-10-11T16:26:13.374Z,2.00
2022-10-11T16:28:42.687Z,2.33
2022-10-11T16:31:16.770Z,1.75
2022-10-11T16:33:46.703Z,3.00
2022-10-11T16:36:34.782Z,2.72
2022-10-11T16:39:05.684Z,1.80
2022-10-11T16:41:34.273Z,2.17
2022-10-11T16:44:02.445Z,1.90
2022-10-11T16:46:33.452Z,2.20
2022-10-11T16:49:01.619Z,2.50
2022-10-11T16:51:29.687Z,2.08
2022-10-11T16:53:57.917Z,2.22
2022-10-11T16:56:26.321Z,2.70
2022-10-11T16:58:55.396Z,2.45
2022-10-11T17:01:24.290Z,2.20
2022-10-11T17:03:54.211Z,3.00
2022-10-11T17:06:22.616Z,2.92
2022-10-11T17:08:50.784Z,2.80
2022-10-11T17:11:19.357Z,3.10
2022-10-11T17:13:47.796Z,3.35
2022-10-11T17:16:16.322Z,4.00
2022-10-11T17:18:44.618Z,9.05
2022-10-11T17:21:16.635Z,6.93
2022-10-11T17:23:44.695Z,4.72
2022-10-11T17:26:17.278Z,4.50
2022-10-11T17:28:45.704Z,3.30
2022-10-11T17:31:14.289Z,3.78
2022-10-11T17:33:42.411Z,2.60
2022-10-11T17:36:27.898Z,4.85
2022-10-11T17:38:56.376Z,4.75
2022-10-11T17:41:29.420Z,4.85
2022-10-11T17:44:01.121Z,4.40
2022-10-11T17:46:32.671Z,4.53
2022-10-11T17:49:02.045Z,4.18
2022-10-11T17:51:32.713Z,4.25
2022-10-11T17:54:01.063Z,4.80
2022-10-11T17:56:33.828Z,4.50
2022-10-11T17:59:04.928Z,4.95
2022-10-11T18:01:33.160Z,5.07
2022-10-11T18:04:03.588Z,5.90
2022-10-11T18:06:35.147Z,6.18
2022-10-11T18:09:04.629Z,5.70
2022-10-11T18:11:33.104Z,6.72
2022-10-11T18:14:01.753Z,7.07
2022-10-11T18:16:31.721Z,5.55
2022-10-11T18:19:00.345Z,7.13
2022-10-11T18:21:34.348Z,6.47
2022-10-11T18:24:07.865Z,6.72
2022-10-11T18:26:36.035Z,6.07
2022-10-11T18:29:05.375Z,7.47
2022-10-11T18:31:35.300Z,7.50
2022-10-11T18:34:04.743Z,6.90
2022-10-11T18:36:34.155Z,5.50
2022-10-11T18:39:06.520Z,4.85
2022-10-11T18:41:35.659Z,5.70
2022-10-11T18:44:06.823Z,10.25
2022-10-11T18:46:35.707Z,8.85
2022-10-11T18:49:04.607Z,12.90
2022-10-11T18:51:34.598Z,14.05
2022-10-11T18:54:03.366Z,15.63
2022-10-11T18:56:34.676Z,13.13
2022-10-11T18:59:02.934Z,10.65
2022-10-11T19:01:33.982Z,8.95
2022-10-11T19:04:04.384Z,10.98
2022-10-11T19:06:34.257Z,8.00
2022-10-11T19:09:04.920Z,5.65
2022-10-11T19:11:34.624Z,7.05
2022-10-11T19:14:06.433Z,8.15
2022-10-11T19:16:37.601Z,10.55
2022-10-11T19:19:06.836Z,10.07
2022-10-11T19:21:35.195Z,9.88
2022-10-11T19:24:03.380Z,11.07
2022-10-11T19:26:34.894Z,12.98
2022-10-11T19:29:06.079Z,12.23
2022-10-11T19:31:36.257Z,11.82
2022-10-11T19:34:05.021Z,11.13
2022-10-11T19:36:36.637Z,10.35
2022-10-11T19:39:06.711Z,12.93
2022-10-11T19:41:36.469Z,13.20
2022-10-11T19:44:04.997Z,12.88
2022-10-11T19:49:24.861Z,11.50
2022-10-11T19:51:53.633Z,13.10
2022-10-11T19:54:21.801Z,11.38
2022-10-11T19:56:51.363Z,11.45
2022-10-11T19:59:19.698Z,10.02
2022-10-11T20:01:52.354Z,7.85
2022-10-11T20:07:11.180Z,5.78
2022-10-11T20:09:39.593Z,6.07
2022-10-11T20:12:09.864Z,7.20
2022-10-11T20:14:37.990Z,8.35
2022-10-11T20:17:06.001Z,6.88
2022-10-11T20:19:34.167Z,8.13
2022-10-11T20:22:02.965Z,9.43
2022-10-11T20:24:33.622Z,9.10
2022-10-11T20:27:03.018Z,16.05
2022-10-11T20:29:33.162Z,12.23
2022-10-11T20:32:02.012Z,26.02
2022-10-11T20:34:31.167Z,32.28
2022-10-11T20:36:59.924Z,35.55
2022-10-11T20:39:29.269Z,15.85
2022-10-11T20:41:57.602Z,12.93
2022-10-11T20:44:25.882Z,7.45
2022-10-11T20:46:56.191Z,5.90
2022-10-11T20:49:25.577Z,6.25
2022-10-11T20:51:53.616Z,7.90
2022-10-11T20:54:21.760Z,6.65
2022-10-11T20:56:49.927Z,7.60
2022-10-11T20:59:17.966Z,6.50
2022-10-11T21:01:46.318Z,6.18
2022-10-11T21:04:19.592Z,7.13
2022-10-11T21:06:48.461Z,6.43
2022-10-11T21:09:17.488Z,7.38
2022-10-11T21:11:46.062Z,6.50
2022-10-11T21:14:14.768Z,6.47
2022-10-11T21:16:43.463Z,5.88
2022-10-11T21:19:14.888Z,6.03
2022-10-11T21:21:49.720Z,5.28
2022-10-11T21:24:20.832Z,6.80
2022-10-11T21:26:49.130Z,5.97
2022-10-11T21:29:17.621Z,4.40
2022-10-11T21:31:45.917Z,5.57
2022-10-11T21:34:14.226Z,4.30
2022-10-11T21:36:42.607Z,3.67
2022-10-11T21:39:12.031Z,4.57
2022-10-11T21:41:42.269Z,3.95
2022-10-11T21:44:10.785Z,3.90
2022-10-11T21:49:26.947Z,3.83
2022-10-11T21:51:55.473Z,4.13
2022-10-11T21:54:25.108Z,3.67
2022-10-11T21:56:53.225Z,3.13
2022-10-11T21:59:22.707Z,3.60
2022-10-11T22:01:50.889Z,3.80
2022-10-11T22:04:19.068Z,3.47
2022-10-11T22:06:47.172Z,3.05
2022-10-11T22:09:15.477Z,3.83
2022-10-11T22:11:45.223Z,4.60
2022-10-11T22:14:13.747Z,3.78
2022-10-11T22:16:41.793Z,4.43
2022-10-11T22:19:09.826Z,5.88
2022-10-11T22:21:44.030Z,5.13
2022-10-11T22:24:13.038Z,4.55
2022-10-11T22:26:41.287Z,4.32
2022-10-11T22:29:10.672Z,3.70
2022-10-11T22:31:39.435Z,3.97
2022-10-11T22:34:07.888Z,3.90
2022-10-11T22:36:36.310Z,3.35
2022-10-11T22:39:07.866Z,3.33
2022-10-11T22:41:36.496Z,3.25
2022-10-11T22:44:05.648Z,4.15
2022-10-11T22:46:35.196Z,6.10
2022-10-11T22:49:03.205Z,6.07
2022-10-11T22:51:32.914Z,7.18
2022-10-11T22:54:01.481Z,7.20
2022-10-11T22:56:30.040Z,8.18
2022-10-11T22:59:00.092Z,9.52
2022-10-11T23:01:28.647Z,10.20
2022-10-11T23:03:58.091Z,14.45
2022-10-11T23:06:26.460Z,8.70
2022-10-11T23:08:54.468Z,5.85
2022-10-11T23:11:22.607Z,3.92
2022-10-11T23:13:51.173Z,4.20
2022-10-11T23:16:19.217Z,4.65
2022-10-11T23:18:47.237Z,4.90
2022-10-11T23:21:17.007Z,5.00
2022-10-11T23:23:45.038Z,4.63
2022-10-11T23:26:14.529Z,4.05
2022-10-11T23:28:43.743Z,3.63
2022-10-11T23:31:13.695Z,3.60
2022-10-11T23:33:41.793Z,3.38
2022-10-11T23:36:16.499Z,3.92
2022-10-11T23:38:45.147Z,4.25
2022-10-11T23:41:13.494Z,8.20
2022-10-11T23:43:41.792Z,12.45
2022-10-11T23:46:09.781Z,12.27
2022-10-11T23:48:38.053Z,17.08
2022-10-11T23:51:06.653Z,13.05
2022-10-11T23:53:36.431Z,15.65
2022-10-11T23:56:04.868Z,12.88
2022-10-11T23:58:33.382Z,11.65
